Harmony Sp — 3FWE6 — position and weather

sailwx.info

Track history (hours):
 
Tides and Currents Weather Stations Pressure Air Temp Water Temp Dewpoint Dewpoint Depression Visibility Wind Speed Wind Dir Waves Ship Positions

Harmony Sp

Last reported at 2016-May-22 13:33 UTC. Time now 2016-May-28 04:04 UTC.
Position N 33°39' E 032°32'.

MMSI: 353359712.

Date/timePositionNaut miles runAvg speedWind from/ knotsBaromVisibWave heightAir tempDewpointWater temp
2016-May-22 13:33N 33°39' E 032°32'1211.6
2016-May-22 12:33N 33°31' E 032°22'1111.4
2016-May-22 11:33N 33°23' E 032°13'1311.3
2016-May-22 10:25N 33°14' E 032°02'3311.5
2016-May-22 07:33N 32°51' E 031°32'2511.7
2016-May-22 05:23N 32°34' E 031°11'2711.6
2016-May-22 03:05N 32°16' E 030°48'611.2
2016-May-22 02:33N 32°12' E 030°42'1211.1
2016-May-22 01:27N 32°03' E 030°32'1011.2
2016-May-22 00:33N 31°56' E 030°24'2711.4
2016-May-21 22:12N 31°38' E 030°00'  
2016-May-15 20:10N 40°42' E 028°55'7 9.4
2016-May-15 19:24N 40°43' E 029°05'8 9.8
2016-May-15 18:33N 40°44' E 029°16'10 9.7
2016-May-15 17:33N 40°45' E 029°28'  
Track history (hours):
 
Tides and Currents Weather Stations Pressure Air Temp Water Temp Dewpoint Dewpoint Depression Visibility Wind Speed Wind Dir Waves Ship Positions

Harmony Sp

Last reported at 2016-May-22 13:33 UTC. Time now 2016-May-28 04:04 UTC.
Position N 33°39' E 032°32'.

MMSI: 353359712.

Date/timePositionNaut miles runAvg speedWind from/ knotsBaromVisibWave heightAir tempDewpointWater temp
2016-May-22 13:33N 33°39' E 032°32'1211.6
2016-May-22 12:33N 33°31' E 032°22'1111.4
2016-May-22 11:33N 33°23' E 032°13'1311.3
2016-May-22 10:25N 33°14' E 032°02'3311.5
2016-May-22 07:33N 32°51' E 031°32'2511.7
2016-May-22 05:23N 32°34' E 031°11'2711.6
2016-May-22 03:05N 32°16' E 030°48'611.2
2016-May-22 02:33N 32°12' E 030°42'1211.1
2016-May-22 01:27N 32°03' E 030°32'1011.2
2016-May-22 00:33N 31°56' E 030°24'2711.4
2016-May-21 22:12N 31°38' E 030°00'  
2016-May-15 20:10N 40°42' E 028°55'7 9.4
2016-May-15 19:24N 40°43' E 029°05'8 9.8
2016-May-15 18:33N 40°44' E 029°16'10 9.7
2016-May-15 17:33N 40°45' E 029°28'  

Dump ship's entire track history